createdAt,value
2018-11-20T00:00:01.440Z,11.97
2018-11-20T00:02:48.028Z,10.97
2018-11-20T00:05:44.596Z,11.97
2018-11-20T00:08:34.960Z,9.80
2018-11-20T00:11:28.492Z,10.83
2018-11-20T00:14:15.022Z,15.63
2018-11-20T00:17:05.628Z,13.83
2018-11-20T00:19:49.024Z,12.03
2018-11-20T00:22:42.884Z,13.33
2018-11-20T00:25:29.171Z,14.47
2018-11-20T00:28:07.431Z,15.07
2018-11-20T00:30:54.512Z,12.50
2018-11-20T00:33:45.083Z,14.50
2018-11-20T00:36:35.658Z,12.73
2018-11-20T00:39:28.401Z,10.63
2018-11-20T00:42:31.047Z,9.63
2018-11-20T00:45:24.229Z,12.60
2018-11-20T00:48:10.581Z,13.30
2018-11-20T00:50:58.240Z,11.70
2018-11-20T00:53:57.517Z,12.23
2018-11-20T00:57:04.487Z,13.63
2018-11-20T00:59:52.857Z,15.43
2018-11-20T01:02:49.432Z,8.93
2018-11-20T01:05:35.875Z,11.37
2018-11-20T01:08:23.705Z,14.80
2018-11-20T01:11:23.459Z,11.60
2018-11-20T01:14:10.105Z,13.33
2018-11-20T01:16:56.511Z,11.43
2018-11-20T01:19:46.748Z,12.77
2018-11-20T01:22:33.178Z,10.73
2018-11-20T01:25:12.228Z,12.73
2018-11-20T01:27:58.592Z,14.37
2018-11-20T01:30:45.112Z,13.07
2018-11-20T01:33:31.487Z,11.87
2018-11-20T01:36:17.895Z,13.13
2018-11-20T01:39:08.525Z,13.57
2018-11-20T01:41:46.919Z,10.73
2018-11-20T01:44:40.711Z,13.83
2018-11-20T01:47:24.210Z,15.40
2018-11-20T01:50:11.889Z,15.20
2018-11-20T01:52:56.719Z,16.37
2018-11-20T01:55:47.300Z,14.47
2018-11-20T01:58:40.904Z,15.27
2018-11-20T02:01:27.052Z,15.80
2018-11-20T02:04:13.372Z,13.80
2018-11-20T02:07:00.988Z,13.73
2018-11-20T02:09:41.954Z,13.87
2018-11-20T02:12:28.371Z,14.37
2018-11-20T02:15:07.401Z,14.63
2018-11-20T02:17:51.071Z,14.70
2018-11-20T02:20:37.558Z,12.63
2018-11-20T02:23:24.132Z,16.00
2018-11-20T02:26:11.812Z,16.33
2018-11-20T02:29:11.250Z,15.00
2018-11-20T02:32:01.493Z,16.23
2018-11-20T02:35:04.383Z,10.90
2018-11-20T02:38:00.736Z,11.60
2018-11-20T02:40:48.404Z,14.80
2018-11-20T02:43:27.398Z,14.87
2018-11-20T02:46:27.349Z,14.87
2018-11-20T02:49:23.868Z,12.53
2018-11-20T02:52:10.288Z,16.10
2018-11-20T02:54:57.996Z,16.97
2018-11-20T02:57:51.728Z,16.13
2018-11-20T03:00:38.440Z,17.03
2018-11-20T03:03:24.730Z,18.37
2018-11-20T03:06:11.017Z,17.20
2018-11-20T03:08:52.219Z,17.50
2018-11-20T03:11:42.561Z,17.87
2018-11-20T03:14:26.631Z,14.97
2018-11-20T03:17:22.502Z,16.20
2018-11-20T03:20:08.563Z,13.80
2018-11-20T03:23:08.461Z,16.60
2018-11-20T03:26:21.211Z,19.87
2018-11-20T03:30:06.215Z,15.70
2018-11-20T03:32:45.715Z,18.13
2018-11-20T03:35:36.071Z,17.50
2018-11-20T03:38:35.952Z,16.53
2018-11-20T03:41:26.531Z,18.73
2018-11-20T03:44:04.473Z,14.20
2018-11-20T03:47:04.313Z,15.93
2018-11-20T03:49:50.819Z,23.63
2018-11-20T03:52:47.542Z,18.97
2018-11-20T03:55:38.104Z,22.37
2018-11-20T03:58:20.903Z,18.80
2018-11-20T04:01:08.590Z,19.23
2018-11-20T04:03:48.052Z,19.57
2018-11-20T04:06:31.543Z,15.43
2018-11-20T04:09:22.081Z,16.23
2018-11-20T04:12:09.785Z,18.13
2018-11-20T04:15:15.446Z,16.87
2018-11-20T04:18:12.017Z,22.03
2018-11-20T04:21:11.556Z,18.50
2018-11-20T04:23:50.710Z,22.63
2018-11-20T04:26:35.504Z,20.87
2018-11-20T04:29:14.059Z,16.57
2018-11-20T04:32:01.567Z,16.23
2018-11-20T04:34:49.271Z,16.13
2018-11-20T04:37:37.447Z,17.70
2018-11-20T04:40:17.201Z,17.90
2018-11-20T04:43:08.755Z,16.20
2018-11-20T04:45:56.423Z,21.90
2018-11-20T04:48:53.338Z,17.10
2018-11-20T04:51:43.929Z,21.50
2018-11-20T04:54:49.595Z,22.63
2018-11-20T04:57:36.191Z,19.77
2018-11-20T05:00:24.892Z,15.83
2018-11-20T05:03:27.749Z,17.23
2018-11-20T05:06:14.283Z,21.40
2018-11-20T05:09:00.437Z,19.87
2018-11-20T05:11:37.182Z,21.33
2018-11-20T05:14:15.895Z,23.03
2018-11-20T05:17:02.389Z,19.60
2018-11-20T05:19:55.865Z,19.63
2018-11-20T05:22:52.645Z,18.80
2018-11-20T05:25:38.704Z,20.80
2018-11-20T05:28:18.439Z,19.17
2018-11-20T05:31:12.160Z,20.23
2018-11-20T05:33:57.830Z,19.93
2018-11-20T05:36:39.029Z,17.20
2018-11-20T05:39:28.074Z,19.90
2018-11-20T05:42:07.070Z,17.00
2018-11-20T05:44:54.783Z,16.63
2018-11-20T05:47:48.099Z,21.40
2018-11-20T05:50:47.977Z,14.60
2018-11-20T05:53:28.315Z,18.70
2018-11-20T05:56:10.779Z,17.87
2018-11-20T05:59:04.354Z,22.43
2018-11-20T06:02:00.923Z,19.17
2018-11-20T06:04:47.272Z,20.33
2018-11-20T06:07:26.074Z,20.93
2018-11-20T06:10:13.737Z,21.57
2018-11-20T06:13:10.448Z,16.40
2018-11-20T06:16:13.337Z,22.63
2018-11-20T06:19:19.103Z,20.03
2018-11-20T06:22:21.681Z,17.83
2018-11-20T06:25:05.033Z,19.83
2018-11-20T06:27:58.402Z,22.37
2018-11-20T06:30:44.529Z,22.40
2018-11-20T06:33:37.275Z,23.30
2018-11-20T06:36:24.569Z,23.70
2018-11-20T06:39:17.930Z,19.20
2018-11-20T06:42:19.578Z,20.67
2018-11-20T06:45:22.365Z,15.43
2018-11-20T06:48:10.316Z,21.37
2018-11-20T06:50:56.356Z,21.10
2018-11-20T06:53:36.198Z,21.73
2018-11-20T06:56:26.093Z,23.77
2018-11-20T06:59:16.781Z,22.30
2018-11-20T07:02:10.561Z,20.47
2018-11-20T07:04:56.856Z,21.77
2018-11-20T07:07:43.223Z,24.33
2018-11-20T07:10:33.378Z,23.83
2018-11-20T07:13:44.579Z,24.60
2018-11-20T07:16:48.116Z,21.53
2018-11-20T07:19:52.337Z,22.70
2018-11-20T07:22:38.994Z,23.93
2018-11-20T07:25:25.659Z,18.57
2018-11-20T07:28:16.406Z,21.60
2018-11-20T07:31:02.667Z,23.50
2018-11-20T07:34:08.349Z,21.80
2018-11-20T07:37:02.018Z,23.40
2018-11-20T07:39:55.716Z,28.00
2018-11-20T07:42:44.002Z,24.83
2018-11-20T07:45:31.661Z,19.50
2018-11-20T07:48:28.421Z,22.83
2018-11-20T07:51:16.092Z,26.37
2018-11-20T07:54:02.243Z,26.70
2018-11-20T07:56:58.863Z,26.53
2018-11-20T07:59:49.149Z,29.33
2018-11-20T08:02:42.849Z,29.67
2018-11-20T08:05:30.498Z,29.67
2018-11-20T08:08:30.009Z,29.83
2018-11-20T08:11:32.565Z,28.30
2018-11-20T08:14:09.538Z,25.80
2018-11-20T08:16:52.317Z,22.77
2018-11-20T08:19:40.010Z,32.63
2018-11-20T08:22:30.563Z,32.87
2018-11-20T08:25:18.270Z,28.87
2018-11-20T08:28:04.649Z,33.63
2018-11-20T08:30:50.988Z,24.70
2018-11-20T08:33:37.390Z,27.70
2018-11-20T08:36:17.263Z,22.80
2018-11-20T08:39:03.418Z,24.07
2018-11-20T08:41:49.743Z,28.13
2018-11-20T08:44:35.958Z,23.83
2018-11-20T08:47:28.491Z,24.97
2018-11-20T08:50:34.433Z,26.63
2018-11-20T08:53:34.212Z,27.33
2018-11-20T08:56:14.995Z,27.57
2018-11-20T08:59:02.778Z,23.67
2018-11-20T09:02:02.805Z,19.93
2018-11-20T09:04:43.754Z,22.93
2018-11-20T09:07:24.622Z,20.17
2018-11-20T09:10:03.626Z,25.57
2018-11-20T09:12:49.912Z,16.37
2018-11-20T09:15:44.123Z,25.70
2018-11-20T09:18:34.653Z,27.13
2018-11-20T09:21:17.265Z,24.17
2018-11-20T09:24:13.572Z,24.43
2018-11-20T09:26:52.297Z,19.97
2018-11-20T09:29:39.950Z,23.33
2018-11-20T09:32:27.634Z,19.90
2018-11-20T09:35:15.425Z,25.47
2018-11-20T09:37:58.493Z,23.50
2018-11-20T09:41:05.778Z,19.17
2018-11-20T09:44:10.409Z,22.13
2018-11-20T09:46:50.719Z,20.20
2018-11-20T09:49:40.950Z,25.20
2018-11-20T09:52:27.453Z,25.17
2018-11-20T09:55:30.324Z,19.80
2018-11-20T09:58:16.747Z,25.37
2018-11-20T10:01:04.448Z,23.63
2018-11-20T10:03:50.809Z,26.33
2018-11-20T10:06:37.069Z,22.80
2018-11-20T10:09:30.898Z,20.00
2018-11-20T10:12:17.240Z,19.77
2018-11-20T10:15:03.754Z,15.20
2018-11-20T10:17:52.091Z,25.97
2018-11-20T10:20:39.781Z,22.00
2018-11-20T10:23:36.169Z,21.00
2018-11-20T10:26:22.882Z,22.50
2018-11-20T10:29:09.096Z,21.57
2018-11-20T10:32:10.679Z,23.93
2018-11-20T10:34:58.278Z,21.30
2018-11-20T10:37:33.006Z,23.40
2018-11-20T10:40:20.730Z,22.27
2018-11-20T10:43:07.104Z,20.67
2018-11-20T10:45:53.312Z,18.83
2018-11-20T10:48:38.363Z,20.27
2018-11-20T10:51:15.822Z,21.70
2018-11-20T10:54:13.777Z,19.97
2018-11-20T10:56:59.905Z,19.60
2018-11-20T10:59:53.612Z,19.60
2018-11-20T11:02:42.162Z,21.87
2018-11-20T11:05:29.533Z,18.83
2018-11-20T11:08:16.041Z,23.47
2018-11-20T11:11:09.508Z,23.97
2018-11-20T11:14:05.119Z,19.57
2018-11-20T11:16:51.295Z,16.97
2018-11-20T11:19:37.633Z,21.37
2018-11-20T11:22:25.731Z,19.77
2018-11-20T11:25:08.221Z,22.17
2018-11-20T11:27:56.021Z,18.23
2018-11-20T11:30:46.511Z,17.83
2018-11-20T11:33:49.436Z,17.27
2018-11-20T11:36:55.027Z,21.53
2018-11-20T11:39:41.127Z,17.10
2018-11-20T11:42:44.088Z,16.00
2018-11-20T11:45:34.396Z,17.33
2018-11-20T11:48:22.098Z,21.77
2018-11-20T11:51:15.838Z,21.40
2018-11-20T11:54:21.630Z,17.80
2018-11-20T11:57:09.338Z,22.67
2018-11-20T12:00:09.039Z,25.30
2018-11-20T12:06:03.218Z,22.03
2018-11-20T12:08:52.560Z,23.37
2018-11-20T12:11:42.153Z,19.07
2018-11-20T12:14:39.038Z,20.10
2018-11-20T12:17:32.914Z,20.73
2018-11-20T12:20:26.578Z,21.00
2018-11-20T12:23:26.915Z,20.80
2018-11-20T12:26:22.501Z,17.03
2018-11-20T12:29:28.524Z,21.33
2018-11-20T12:32:09.692Z,16.63
2018-11-20T12:35:13.655Z,20.30
2018-11-20T12:37:59.348Z,22.97
2018-11-20T12:40:51.619Z,21.33
2018-11-20T12:43:39.341Z,18.60
2018-11-20T12:46:25.643Z,22.73
2018-11-20T12:49:11.963Z,24.03
2018-11-20T12:51:59.635Z,19.73
2018-11-20T12:54:47.307Z,20.80
2018-11-20T12:57:37.704Z,17.63
2018-11-20T13:00:29.363Z,24.27
2018-11-20T13:03:23.177Z,19.83
2018-11-20T13:06:09.456Z,24.00
2018-11-20T13:08:56.012Z,21.07
2018-11-20T13:11:49.322Z,25.47
2018-11-20T13:14:38.540Z,20.70
2018-11-20T13:17:23.339Z,18.10
2018-11-20T13:20:10.606Z,16.67
2018-11-20T13:22:57.881Z,19.43
2018-11-20T13:25:51.402Z,22.63
2018-11-20T13:28:32.537Z,21.87
2018-11-20T13:31:16.484Z,26.40
2018-11-20T13:34:20.852Z,21.50
2018-11-20T13:37:02.076Z,23.83
2018-11-20T13:39:49.759Z,20.67
2018-11-20T13:42:49.227Z,22.23
2018-11-20T13:45:43.737Z,22.70
2018-11-20T13:48:29.889Z,21.50
2018-11-20T13:51:32.519Z,25.20
2018-11-20T13:54:18.975Z,24.00
2018-11-20T13:57:05.444Z,23.60
2018-11-20T14:00:08.135Z,24.17
2018-11-20T14:03:04.763Z,23.60
2018-11-20T14:06:07.398Z,23.67
2018-11-20T14:08:53.989Z,25.27
2018-11-20T14:11:40.063Z,20.40
2018-11-20T14:14:30.731Z,21.43
2018-11-20T14:17:17.171Z,24.43
2018-11-20T14:20:08.009Z,22.57
2018-11-20T14:22:54.547Z,18.37
2018-11-20T14:25:44.248Z,19.60
2018-11-20T14:28:37.901Z,19.67
2018-11-20T14:31:41.586Z,20.93
2018-11-20T14:34:25.549Z,16.90
2018-11-20T14:37:25.220Z,24.87
2018-11-20T14:40:21.550Z,21.67
2018-11-20T14:43:18.310Z,21.73
2018-11-20T14:46:24.178Z,22.00
2018-11-20T14:49:10.350Z,22.17
2018-11-20T14:51:55.526Z,23.03
2018-11-20T14:54:42.791Z,22.20
2018-11-20T14:57:28.645Z,20.40
2018-11-20T15:00:14.749Z,23.83
2018-11-20T15:03:02.443Z,22.13
2018-11-20T15:05:50.137Z,20.37
2018-11-20T15:08:44.228Z,24.87
2018-11-20T15:11:27.457Z,26.23
2018-11-20T15:14:21.404Z,24.57
2018-11-20T15:17:08.028Z,21.43
2018-11-20T15:20:01.787Z,25.57
2018-11-20T15:23:01.710Z,27.87
2018-11-20T15:26:03.994Z,28.17
2018-11-20T15:28:44.792Z,26.57
2018-11-20T15:31:26.264Z,28.57
2018-11-20T15:34:14.153Z,26.75
2018-11-20T15:37:20.518Z,31.70
2018-11-20T15:40:07.047Z,22.73
2018-11-20T15:42:54.343Z,28.75
2018-11-20T15:45:35.708Z,31.05
2018-11-20T15:48:24.220Z,32.20
2018-11-20T15:51:24.382Z,25.48
2018-11-20T15:54:30.793Z,30.10
2018-11-20T15:57:34.259Z,35.83
2018-11-20T16:00:25.014Z,31.20
2018-11-20T16:03:25.068Z,37.30
2018-11-20T16:06:13.578Z,33.45
2018-11-20T16:10:22.144Z,33.47
2018-11-20T16:13:20.918Z,36.65
2018-11-20T16:16:07.862Z,35.75
2018-11-20T16:18:54.787Z,35.58
2018-11-20T16:21:40.229Z,35.33
2018-11-20T16:24:25.478Z,32.63
2018-11-20T16:27:24.552Z,35.20
2018-11-20T16:30:10.114Z,33.63
2018-11-20T16:33:02.627Z,33.55
2018-11-20T16:36:04.334Z,31.60
2018-11-20T16:38:49.894Z,36.70
2018-11-20T16:41:48.985Z,39.70
2018-11-20T16:44:36.220Z,34.88
2018-11-20T16:47:23.717Z,34.98
2018-11-20T16:50:09.143Z,34.83
2018-11-20T16:53:14.417Z,38.85
2018-11-20T16:56:07.236Z,36.40
2018-11-20T16:58:47.366Z,40.03
2018-11-20T17:01:42.930Z,34.50
2018-11-20T17:04:38.941Z,31.97
2018-11-20T17:07:34.942Z,36.88
2018-11-20T17:10:21.933Z,39.45
2018-11-20T17:13:20.910Z,33.23
2018-11-20T17:16:10.694Z,36.75
2018-11-20T17:19:15.712Z,35.03
2018-11-20T17:22:03.075Z,36.80
2018-11-20T17:24:48.700Z,32.57
2018-11-20T17:27:41.493Z,31.80
2018-11-20T17:30:28.782Z,32.40
2018-11-20T17:33:12.356Z,34.20
2018-11-20T17:35:57.659Z,32.33
2018-11-20T17:38:39.022Z,37.30
2018-11-20T17:41:31.664Z,34.00
2018-11-20T17:44:28.290Z,31.80
2018-11-20T17:47:17.832Z,33.70
2018-11-20T17:50:10.265Z,39.33
2018-11-20T17:52:56.662Z,34.85
2018-11-20T17:55:43.555Z,31.97
2018-11-20T17:58:24.133Z,33.53
2018-11-20T18:01:05.013Z,21.00
2018-11-20T18:04:09.838Z,34.13
2018-11-20T18:06:54.502Z,31.63
2018-11-20T18:09:47.196Z,31.82
2018-11-20T18:12:49.664Z,27.93
2018-11-20T18:15:42.383Z,31.87
2018-11-20T18:18:28.573Z,28.53
2018-11-20T18:21:21.320Z,23.50
2018-11-20T18:24:06.679Z,27.00
2018-11-20T18:26:52.436Z,25.92
2018-11-20T18:29:42.273Z,30.12
2018-11-20T18:32:27.645Z,23.03
2018-11-20T18:35:13.463Z,24.63
2018-11-20T18:38:09.219Z,16.67
2018-11-20T18:40:54.666Z,16.97
2018-11-20T18:43:47.097Z,25.90
2018-11-20T18:46:48.949Z,25.40
2018-11-20T18:49:33.754Z,23.77
2018-11-20T18:52:27.235Z,22.13
2018-11-20T18:55:14.139Z,22.17
2018-11-20T18:57:59.479Z,25.08
2018-11-20T19:00:37.835Z,22.23
2018-11-20T19:03:23.244Z,27.70
2018-11-20T19:06:22.105Z,26.33
2018-11-20T19:09:07.595Z,22.30
2018-11-20T19:11:52.936Z,18.87
2018-11-20T19:14:45.735Z,19.23
2018-11-20T19:17:31.431Z,23.27
2018-11-20T19:20:17.144Z,25.00
2018-11-20T19:23:02.711Z,23.07
2018-11-20T19:25:58.615Z,25.00
2018-11-20T19:28:44.163Z,25.30
2018-11-20T19:31:29.721Z,22.97
2018-11-20T19:34:15.197Z,28.03
2018-11-20T19:37:00.527Z,22.80
2018-11-20T19:39:48.181Z,30.37
2018-11-20T19:42:33.933Z,18.63
2018-11-20T19:45:19.420Z,23.50
2018-11-20T19:48:05.063Z,26.43
2018-11-20T19:50:57.882Z,26.27
2018-11-20T19:53:56.683Z,28.10
2018-11-20T19:56:42.336Z,22.43
2018-11-20T19:59:42.646Z,33.10
2018-11-20T20:02:48.017Z,26.47
2018-11-20T20:05:34.991Z,26.83
2018-11-20T20:08:21.891Z,30.77
2018-11-20T20:11:01.281Z,28.80
2018-11-20T20:13:51.016Z,21.23
2018-11-20T20:16:44.173Z,31.90
2018-11-20T20:19:43.061Z,29.00
2018-11-20T20:22:21.827Z,25.10
2018-11-20T20:25:11.856Z,28.40
2018-11-20T20:28:13.959Z,21.40
2018-11-20T20:30:53.986Z,32.23
2018-11-20T20:33:39.434Z,33.40
2018-11-20T20:36:24.847Z,34.27
2018-11-20T20:39:26.776Z,30.97
2018-11-20T20:42:12.581Z,34.60
2018-11-20T20:44:58.037Z,19.23
2018-11-20T20:47:57.171Z,31.33
2018-11-20T20:50:42.828Z,35.23
2018-11-20T20:53:28.683Z,28.23
2018-11-20T20:56:15.725Z,31.63
2018-11-20T20:59:01.724Z,26.90
2018-11-20T21:01:51.556Z,30.97
2018-11-20T21:04:52.984Z,31.13
2018-11-20T21:07:51.609Z,31.77
2018-11-20T21:10:37.269Z,31.43
2018-11-20T21:13:28.811Z,30.60
2018-11-20T21:16:14.494Z,33.73
2018-11-20T21:19:19.555Z,31.70
2018-11-20T21:22:12.341Z,21.13
2018-11-20T21:25:09.854Z,30.87
2018-11-20T21:27:55.217Z,33.33
2018-11-20T21:30:47.961Z,28.87
2018-11-20T21:33:26.867Z,28.67
2018-11-20T21:36:12.413Z,28.50
2018-11-20T21:38:59.451Z,21.30
2018-11-20T21:41:49.038Z,32.93
2018-11-20T21:44:31.270Z,35.07
2018-11-20T21:47:17.023Z,27.10
2018-11-20T21:50:02.365Z,36.43
2018-11-20T21:52:41.948Z,35.20
2018-11-20T21:55:34.935Z,32.60
2018-11-20T21:58:24.599Z,32.33
2018-11-20T22:01:15.028Z,37.53
2018-11-20T22:04:17.072Z,38.30
2018-11-20T22:07:21.903Z,39.57
2018-11-20T22:10:11.882Z,36.33
2018-11-20T22:12:57.383Z,40.77
2018-11-20T22:15:53.349Z,43.43
2018-11-20T22:18:49.252Z,44.40
2018-11-20T22:21:30.673Z,45.13
2018-11-20T22:24:16.256Z,45.23
2018-11-20T22:27:21.159Z,38.50
2018-11-20T22:30:10.862Z,41.80
2018-11-20T22:33:00.379Z,43.13
2018-11-20T22:35:42.761Z,37.03
2018-11-20T22:38:27.641Z,49.93
2018-11-20T22:41:20.566Z,36.73
2018-11-20T22:44:01.134Z,46.48
2018-11-20T22:46:46.706Z,38.17
2018-11-20T22:49:32.944Z,42.37
2018-11-20T22:52:07.393Z,46.25
2018-11-20T22:55:12.590Z,45.50
2018-11-20T22:57:58.404Z,41.93
2018-11-20T23:00:44.070Z,46.20
2018-11-20T23:03:29.770Z,52.73
2018-11-20T23:06:24.686Z,37.83
2018-11-20T23:08:52.125Z,33.33
2018-11-20T23:11:19.485Z,38.00
2018-11-20T23:13:46.890Z,44.83
2018-11-20T23:16:14.255Z,46.67
2018-11-20T23:18:41.627Z,48.40
2018-11-20T23:21:08.977Z,51.93
2018-11-20T23:23:36.350Z,51.20
2018-11-20T23:26:03.754Z,50.07
2018-11-20T23:28:31.128Z,52.45
2018-11-20T23:30:58.596Z,36.97
2018-11-20T23:33:25.992Z,48.33
2018-11-20T23:35:53.362Z,40.52
2018-11-20T23:38:20.761Z,52.97
2018-11-20T23:40:48.179Z,54.93
2018-11-20T23:43:15.510Z,48.60
2018-11-20T23:45:42.882Z,44.47
2018-11-20T23:48:10.424Z,53.87
2018-11-20T23:50:37.764Z,51.37
2018-11-20T23:53:05.112Z,48.13
2018-11-20T23:55:32.526Z,51.83
2018-11-20T23:57:59.897Z,48.37
